Time,TemperatureF,DewpointF,PressureIn,WindDirection,WindDirectionDegrees,WindSpeedMPH,WindSpeedGustMPH,Humidity,HourlyPrecipIn,Conditions,Clouds,dailyrainin,SoftwareType,DateUTC
2013-05-29 00:04:00,70.0,60.1,30.38,SE,135,0.7,2.2,71,0.00,,,0.00,pywws,2013-05-29 04:04:00,
2013-05-29 00:09:00,69.6,60.6,30.39,SE,135,2.2,3.8,73,0.00,,,0.00,pywws,2013-05-29 04:09:00,
2013-05-29 00:14:00,69.6,61.0,30.40,SE,135,2.2,3.8,74,0.00,,,0.00,pywws,2013-05-29 04:14:00,
2013-05-29 00:19:00,69.4,60.8,30.40,SW,225,0.7,2.2,74,0.00,,,0.00,pywws,2013-05-29 04:19:00,
2013-05-29 00:24:00,69.3,60.6,30.40,SE,135,0.7,2.2,74,0.00,,,0.00,pywws,2013-05-29 04:24:00,
2013-05-29 00:34:00,69.1,60.8,30.40,SE,135,1.6,2.2,75,0.00,,,0.00,pywws,2013-05-29 04:34:00,
2013-05-29 00:39:00,68.7,60.8,30.40,SE,135,1.6,2.2,76,0.00,,,0.00,pywws,2013-05-29 04:39:00,
2013-05-29 00:44:00,68.7,61.2,30.40,SE,135,0.7,2.2,77,0.00,,,0.00,pywws,2013-05-29 04:44:00,
2013-05-29 00:49:00,68.2,60.7,30.41,South,180,1.6,3.1,77,0.00,,,0.00,pywws,2013-05-29 04:49:00,
2013-05-29 00:54:00,68.0,60.9,30.41,SE,135,1.6,4.5,78,0.00,,,0.00,pywws,2013-05-29 04:54:00,
2013-05-29 00:59:00,68.4,61.6,30.41,SSE,158,0.7,2.2,79,0.00,,,0.00,pywws,2013-05-29 04:59:00,
2013-05-29 01:04:00,68.2,61.4,30.41,SE,135,1.6,3.1,79,0.00,,,0.00,pywws,2013-05-29 05:04:00,
2013-05-29 01:09:00,69.1,62.6,30.40,SE,135,0.7,1.6,80,0.00,,,0.00,pywws,2013-05-29 05:09:00,
2013-05-29 01:14:00,68.0,61.6,30.41,SE,135,0.7,2.2,80,0.00,,,0.00,pywws,2013-05-29 05:14:00,
2013-05-29 01:19:00,68.0,61.6,30.41,SE,135,0.0,2.2,80,0.00,,,0.00,pywws,2013-05-29 05:19:00,
2013-05-29 01:24:00,69.1,63.0,30.42,SE,135,0.7,1.6,81,0.00,,,0.00,pywws,2013-05-29 05:24:00,
2013-05-29 01:34:00,67.6,61.6,30.42,SE,135,0.7,1.6,81,0.00,,,0.00,pywws,2013-05-29 05:34:00,
2013-05-29 01:39:00,67.6,61.9,30.41,SE,135,0.7,1.6,82,0.00,,,0.00,pywws,2013-05-29 05:39:00,
2013-05-29 01:44:00,67.3,61.9,30.41,SE,135,1.6,2.2,83,0.00,,,0.00,pywws,2013-05-29 05:44:00,
2013-05-29 01:49:00,67.3,61.9,30.41,South,180,0.7,2.2,83,0.00,,,0.00,pywws,2013-05-29 05:49:00,
2013-05-29 01:54:00,67.3,62.3,30.42,SE,135,0.7,1.6,84,0.00,,,0.00,pywws,2013-05-29 05:54:00,
2013-05-29 02:04:00,67.1,62.1,30.42,SE,135,1.6,3.1,84,0.00,,,0.00,pywws,2013-05-29 06:04:00,
2013-05-29 02:09:00,67.1,62.1,30.42,SE,135,1.6,2.2,84,0.00,,,0.00,pywws,2013-05-29 06:09:00,
2013-05-29 02:14:00,66.9,62.3,30.41,SE,135,1.6,3.1,85,0.00,,,0.00,pywws,2013-05-29 06:14:00,
2013-05-29 02:19:00,66.7,62.1,30.41,SE,135,0.7,1.6,85,0.00,,,0.00,pywws,2013-05-29 06:19:00,
2013-05-29 02:24:00,66.7,62.4,30.41,SE,135,2.2,4.5,86,0.00,,,0.00,pywws,2013-05-29 06:24:00,
2013-05-29 02:34:00,66.7,62.1,30.42,South,180,0.7,1.6,85,0.00,,,0.00,pywws,2013-05-29 06:34:00,
2013-05-29 02:39:00,66.6,62.2,30.42,SE,135,0.7,2.2,86,0.00,,,0.00,pywws,2013-05-29 06:39:00,
2013-05-29 02:44:00,66.4,62.1,30.42,South,180,0.7,3.1,86,0.00,,,0.00,pywws,2013-05-29 06:44:00,
2013-05-29 02:49:00,66.6,62.2,30.41,South,180,0.7,1.6,86,0.00,,,0.00,pywws,2013-05-29 06:49:00,
2013-05-29 02:54:00,66.4,62.4,30.41,South,180,0.0,0.7,87,0.00,,,0.00,pywws,2013-05-29 06:54:00,
2013-05-29 03:04:00,66.2,62.2,30.41,SE,135,0.0,1.6,87,0.00,,,0.00,pywws,2013-05-29 07:04:00,
2013-05-29 03:09:00,66.0,62.4,30.42,SE,135,0.0,1.6,88,0.00,,,0.00,pywws,2013-05-29 07:09:00,
2013-05-29 03:14:00,65.8,62.2,30.42,SE,135,0.0,1.6,88,0.00,,,0.00,pywws,2013-05-29 07:14:00,
2013-05-29 03:19:00,65.8,62.2,30.42,South,180,0.0,1.6,88,0.00,,,0.00,pywws,2013-05-29 07:19:00,
2013-05-29 03:24:00,65.7,62.3,30.42,SE,135,0.7,1.6,89,0.00,,,0.00,pywws,2013-05-29 07:24:00,
2013-05-29 03:34:00,65.7,62.0,30.42,South,180,0.0,0.7,88,0.00,,,0.00,pywws,2013-05-29 07:34:00,
2013-05-29 03:39:00,65.3,62.0,30.42,SE,135,0.0,0.7,89,0.00,,,0.00,pywws,2013-05-29 07:39:00,
2013-05-29 03:44:00,65.3,62.0,30.42,SE,135,0.0,1.6,89,0.00,,,0.00,pywws,2013-05-29 07:44:00,
2013-05-29 03:49:00,65.1,61.8,30.42,SE,135,0.0,0.0,89,0.00,,,0.00,pywws,2013-05-29 07:49:00,
2013-05-29 03:54:00,64.9,61.6,30.42,SE,135,0.0,0.0,89,0.00,,,0.00,pywws,2013-05-29 07:54:00,
2013-05-29 04:04:00,64.6,61.3,30.42,SE,135,0.0,0.0,89,0.00,,,0.00,pywws,2013-05-29 08:04:00,
2013-05-29 04:09:00,64.0,60.7,30.41,SE,135,0.0,0.7,89,0.00,,,0.00,pywws,2013-05-29 08:09:00,
2013-05-29 04:14:00,63.9,60.9,30.41,SE,135,0.0,0.0,90,0.00,,,0.00,pywws,2013-05-29 08:14:00,
2013-05-29 04:19:00,63.7,60.7,30.42,East,90,0.0,0.7,90,0.00,,,0.00,pywws,2013-05-29 08:19:00,
2013-05-29 04:24:00,63.5,60.5,30.42,East,90,0.0,0.0,90,0.00,,,0.00,pywws,2013-05-29 08:24:00,
2013-05-29 04:34:00,63.3,60.6,30.42,SE,135,0.0,0.0,91,0.00,,,0.00,pywws,2013-05-29 08:34:00,
2013-05-29 04:39:00,63.1,60.5,30.42,SE,135,0.0,0.7,91,0.00,,,0.00,pywws,2013-05-29 08:39:00,
2013-05-29 04:44:00,63.0,60.3,30.42,SE,135,0.0,0.7,91,0.00,,,0.00,pywws,2013-05-29 08:44:00,
2013-05-29 04:49:00,63.0,60.6,30.42,SE,135,0.0,0.7,92,0.00,,,0.00,pywws,2013-05-29 08:49:00,
2013-05-29 04:54:00,62.8,60.4,30.42,SE,135,0.0,0.7,92,0.00,,,0.00,pywws,2013-05-29 08:54:00,
2013-05-29 05:04:00,62.8,60.4,30.42,SE,135,0.0,0.0,92,0.00,,,0.00,pywws,2013-05-29 09:04:00,
2013-05-29 05:09:00,62.6,60.5,30.42,SE,135,0.0,0.0,93,0.00,,,0.00,pywws,2013-05-29 09:09:00,
2013-05-29 05:14:00,62.4,60.4,30.42,NE,45,0.0,0.0,93,0.00,,,0.00,pywws,2013-05-29 09:14:00,
2013-05-29 05:19:00,62.2,60.2,30.42,NE,45,0.0,0.0,93,0.00,,,0.00,pywws,2013-05-29 09:19:00,
2013-05-29 05:24:00,62.2,60.2,30.42,NE,45,0.0,0.7,93,0.00,,,0.00,pywws,2013-05-29 09:24:00,
2013-05-29 05:34:00,62.1,60.0,30.42,NE,45,0.0,0.0,93,0.00,,,0.00,pywws,2013-05-29 09:34:00,
2013-05-29 05:39:00,62.1,60.0,30.42,South,180,0.0,0.7,93,0.00,,,0.00,pywws,2013-05-29 09:39:00,
2013-05-29 05:44:00,61.7,59.7,30.42,South,180,0.0,0.0,93,0.00,,,0.00,pywws,2013-05-29 09:44:00,
2013-05-29 05:49:00,61.7,60.0,30.41,South,180,0.0,0.0,94,0.00,,,0.00,pywws,2013-05-29 09:49:00,
2013-05-29 05:54:00,61.5,59.8,30.41,South,180,0.0,0.0,94,0.00,,,0.00,pywws,2013-05-29 09:54:00,
2013-05-29 06:04:00,61.7,60.0,30.41,SW,225,0.0,0.0,94,0.00,,,0.00,pywws,2013-05-29 10:04:00,
2013-05-29 06:09:00,61.7,60.0,30.41,South,180,0.0,1.6,94,0.00,,,0.00,pywws,2013-05-29 10:09:00,
2013-05-29 06:14:00,61.7,60.0,30.40,South,180,0.0,0.0,94,0.00,,,0.00,pywws,2013-05-29 10:14:00,
2013-05-29 06:19:00,61.5,59.8,30.40,South,180,0.0,0.0,94,0.00,,,0.00,pywws,2013-05-29 10:19:00,
2013-05-29 06:24:00,61.5,59.8,30.40,South,180,0.0,0.0,94,0.00,,,0.00,pywws,2013-05-29 10:24:00,
2013-05-29 06:34:00,61.3,59.6,30.40,South,180,0.0,0.0,94,0.00,,,0.00,pywws,2013-05-29 10:34:00,
2013-05-29 06:39:00,61.5,59.8,30.40,West,270,0.0,0.7,94,0.00,,,0.00,pywws,2013-05-29 10:39:00,
2013-05-29 06:44:00,61.5,59.8,30.40,West,270,0.0,0.0,94,0.00,,,0.00,pywws,2013-05-29 10:44:00,
2013-05-29 06:49:00,61.5,59.8,30.40,SE,135,0.0,0.0,94,0.00,,,0.00,pywws,2013-05-29 10:49:00,
2013-05-29 06:54:00,61.5,59.8,30.39,SE,135,0.0,0.0,94,0.00,,,0.00,pywws,2013-05-29 10:54:00,
2013-05-29 07:04:00,61.7,60.3,30.39,SE,135,0.0,0.0,95,0.00,,,0.00,pywws,2013-05-29 11:04:00,
2013-05-29 07:09:00,62.4,61.0,30.39,SE,135,0.0,0.7,95,0.00,,,0.00,pywws,2013-05-29 11:09:00,
2013-05-29 07:14:00,62.8,61.3,30.39,SE,135,0.0,0.0,95,0.00,,,0.00,pywws,2013-05-29 11:14:00,
2013-05-29 07:19:00,63.1,61.7,30.39,SE,135,0.0,0.0,95,0.00,,,0.00,pywws,2013-05-29 11:19:00,
2013-05-29 07:24:00,63.5,62.3,30.38,SE,135,0.0,0.7,96,0.00,,,0.00,pywws,2013-05-29 11:24:00,
2013-05-29 07:34:00,63.9,62.7,30.38,SW,225,0.0,0.0,96,0.00,,,0.00,pywws,2013-05-29 11:34:00,
2013-05-29 07:39:00,64.0,62.6,30.37,SW,225,0.0,0.7,95,0.00,,,0.00,pywws,2013-05-29 11:39:00,
2013-05-29 07:44:00,64.2,62.8,30.37,SW,225,0.0,0.0,95,0.00,,,0.00,pywws,2013-05-29 11:44:00,
2013-05-29 07:49:00,64.4,62.9,30.37,SW,225,0.0,0.0,95,0.00,,,0.00,pywws,2013-05-29 11:49:00,
2013-05-29 07:54:00,64.9,63.5,30.37,SE,135,0.0,0.7,95,0.00,,,0.00,pywws,2013-05-29 11:54:00,
2013-05-29 08:04:00,65.8,64.4,30.37,SE,135,0.0,0.0,95,0.00,,,0.00,pywws,2013-05-29 12:04:00,
2013-05-29 08:08:00,66.7,65.0,30.36,SE,135,0.0,0.0,94,0.00,,,0.00,pywws,2013-05-29 12:08:00,
2013-05-29 08:13:00,67.3,65.5,30.36,SE,135,0.0,0.0,94,0.00,,,0.00,pywws,2013-05-29 12:13:00,
2013-05-29 08:18:00,67.8,66.0,30.35,SE,135,0.0,0.0,94,0.00,,,0.00,pywws,2013-05-29 12:18:00,
2013-05-29 08:23:00,68.2,66.1,30.35,SE,135,0.0,1.6,93,0.00,,,0.00,pywws,2013-05-29 12:23:00,
2013-05-29 08:34:00,68.7,66.3,30.35,East,90,0.0,2.2,92,0.00,,,0.00,pywws,2013-05-29 12:34:00,
2013-05-29 08:39:00,69.8,66.7,30.34,SE,135,0.0,1.6,90,0.00,,,0.00,pywws,2013-05-29 12:39:00,
2013-05-29 08:44:00,70.3,66.6,30.34,SSW,202,0.7,2.2,88,0.00,,,0.00,pywws,2013-05-29 12:44:00,
2013-05-29 08:49:00,70.7,66.6,30.34,East,90,0.0,1.6,87,0.00,,,0.00,pywws,2013-05-29 12:49:00,
2013-05-29 08:54:00,70.9,66.5,30.34,SE,135,0.0,1.6,86,0.00,,,0.00,pywws,2013-05-29 12:54:00,
2013-05-29 09:04:00,71.2,66.8,30.34,SE,135,0.0,0.7,86,0.00,,,0.00,pywws,2013-05-29 13:04:00,
2013-05-29 09:09:00,72.3,66.9,30.33,East,90,1.6,3.8,83,0.00,,,0.00,pywws,2013-05-29 13:09:00,
2013-05-29 09:14:00,72.7,66.5,30.33,SE,135,1.6,3.8,81,0.00,,,0.00,pywws,2013-05-29 13:14:00,
2013-05-29 09:19:00,72.9,66.7,30.33,South,180,1.6,3.8,81,0.00,,,0.00,pywws,2013-05-29 13:19:00,
2013-05-29 09:24:00,73.6,67.4,30.33,South,180,0.7,1.6,81,0.00,,,0.00,pywws,2013-05-29 13:24:00,
2013-05-29 09:34:00,74.5,66.8,30.33,WSW,248,1.6,3.1,77,0.00,,,0.00,pywws,2013-05-29 13:34:00,
2013-05-29 09:39:00,74.7,66.2,30.32,SE,135,0.0,0.7,75,0.00,,,0.00,pywws,2013-05-29 13:39:00,
2013-05-29 09:44:00,74.7,65.8,30.32,West,270,0.0,1.6,74,0.00,,,0.00,pywws,2013-05-29 13:44:00,
2013-05-29 09:49:00,75.0,66.2,30.32,South,180,1.6,3.8,74,0.00,,,0.00,pywws,2013-05-29 13:49:00,
2013-05-29 09:54:00,75.2,65.9,30.32,South,180,0.7,2.2,73,0.00,,,0.00,pywws,2013-05-29 13:54:00,
2013-05-29 10:04:00,75.6,65.9,30.32,West,270,1.6,3.8,72,0.00,,,0.00,pywws,2013-05-29 14:04:00,
2013-05-29 10:08:00,75.4,64.9,30.31,SE,135,1.6,3.8,70,0.00,,,0.00,pywws,2013-05-29 14:08:00,
2013-05-29 10:13:00,75.2,65.1,30.31,SE,135,0.7,1.6,71,0.00,,,0.00,pywws,2013-05-29 14:13:00,
2013-05-29 10:18:00,75.6,65.1,30.30,NE,45,0.7,2.2,70,0.00,,,0.00,pywws,2013-05-29 14:18:00,
2013-05-29 10:23:00,76.3,64.9,30.30,SSE,158,0.7,3.1,68,0.00,,,0.00,pywws,2013-05-29 14:23:00,
2013-05-29 10:34:00,77.0,64.8,30.30,South,180,2.2,3.1,66,0.00,,,0.00,pywws,2013-05-29 14:34:00,
2013-05-29 10:39:00,77.2,64.0,30.29,South,180,0.0,1.6,64,0.00,,,0.00,pywws,2013-05-29 14:39:00,
2013-05-29 10:44:00,77.2,64.9,30.29,West,270,1.6,2.2,66,0.00,,,0.00,pywws,2013-05-29 14:44:00,
2013-05-29 10:49:00,77.7,64.6,30.29,South,180,0.7,2.2,64,0.00,,,0.00,pywws,2013-05-29 14:49:00,
2013-05-29 10:54:00,78.1,64.4,30.29,SE,135,2.2,3.8,63,0.00,,,0.00,pywws,2013-05-29 14:54:00,
2013-05-29 11:04:00,78.4,63.4,30.28,South,180,1.6,3.8,60,0.00,,,0.00,pywws,2013-05-29 15:04:00,
2013-05-29 11:08:00,79.5,62.9,30.28,SSW,202,1.6,3.8,57,0.00,,,0.00,pywws,2013-05-29 15:08:00,
2013-05-29 11:13:00,81.0,63.2,30.28,East,90,0.0,0.7,55,0.00,,,0.00,pywws,2013-05-29 15:13:00,
2013-05-29 11:18:00,81.9,64.1,30.28,East,90,0.7,2.2,55,0.00,,,0.00,pywws,2013-05-29 15:18:00,
2013-05-29 11:23:00,82.9,62.4,30.27,SE,135,1.6,2.2,50,0.00,,,0.00,pywws,2013-05-29 15:23:00,
2013-05-29 11:34:00,83.5,61.7,30.27,SW,225,2.2,3.8,48,0.00,,,0.00,pywws,2013-05-29 15:34:00,
2013-05-29 11:39:00,84.0,62.8,30.27,SE,135,0.7,2.2,49,0.00,,,0.00,pywws,2013-05-29 15:39:00,
2013-05-29 11:44:00,84.7,62.8,30.27,SSE,158,1.6,3.1,48,0.00,,,0.00,pywws,2013-05-29 15:44:00,
2013-05-29 11:49:00,84.9,61.8,30.26,SSE,158,1.6,4.5,46,0.00,,,0.00,pywws,2013-05-29 15:49:00,
2013-05-29 11:54:00,84.7,62.2,30.26,SSE,158,2.2,3.8,47,0.00,,,0.00,pywws,2013-05-29 15:54:00,
2013-05-29 12:04:00,85.6,62.4,30.25,East,90,0.7,2.2,46,0.00,,,0.00,pywws,2013-05-29 16:04:00,
2013-05-29 12:08:00,86.0,62.2,30.25,West,270,1.6,4.5,45,0.00,,,0.00,pywws,2013-05-29 16:08:00,
2013-05-29 12:13:00,86.2,61.7,30.24,SE,135,2.2,3.8,44,0.00,,,0.00,pywws,2013-05-29 16:13:00,
2013-05-29 12:18:00,86.0,62.2,30.24,South,180,1.6,3.1,45,0.00,,,0.00,pywws,2013-05-29 16:18:00,
2013-05-29 12:23:00,85.5,61.0,30.24,SE,135,1.6,3.1,44,0.00,,,0.00,pywws,2013-05-29 16:23:00,
2013-05-29 12:34:00,83.7,60.7,30.24,SW,225,0.7,2.2,46,0.00,,,0.00,pywws,2013-05-29 16:34:00,
2013-05-29 12:38:00,85.1,63.2,30.23,East,90,0.7,3.1,48,0.00,,,0.00,pywws,2013-05-29 16:38:00,
2013-05-29 12:43:00,86.2,61.7,30.23,South,180,0.7,2.2,44,0.00,,,0.00,pywws,2013-05-29 16:43:00,
2013-05-29 12:48:00,87.1,62.5,30.22,North,0,1.6,3.8,44,0.00,,,0.00,pywws,2013-05-29 16:48:00,
2013-05-29 12:53:00,87.4,60.1,30.22,South,180,2.2,3.8,40,0.00,,,0.00,pywws,2013-05-29 16:53:00,
2013-05-29 13:04:00,87.1,59.1,30.22,SW,225,0.7,2.2,39,0.00,,,0.00,pywws,2013-05-29 17:04:00,
2013-05-29 13:08:00,87.1,61.8,30.21,ENE,68,1.6,3.8,43,0.00,,,0.00,pywws,2013-05-29 17:08:00,
2013-05-29 13:13:00,86.9,60.3,30.21,SE,135,0.7,3.1,41,0.00,,,0.00,pywws,2013-05-29 17:13:00,
2013-05-29 13:18:00,87.3,61.3,30.21,South,180,0.7,2.2,42,0.00,,,0.00,pywws,2013-05-29 17:18:00,
2013-05-29 13:23:00,86.7,60.8,30.20,NNE,22,1.6,3.1,42,0.00,,,0.00,pywws,2013-05-29 17:23:00,
2013-05-29 13:34:00,87.1,62.5,30.20,SE,135,0.7,2.2,44,0.00,,,0.00,pywws,2013-05-29 17:34:00,
2013-05-29 13:38:00,88.2,60.8,30.19,East,90,1.6,6.0,40,0.00,,,0.00,pywws,2013-05-29 17:38:00,
2013-05-29 13:43:00,88.7,61.2,30.19,SW,225,0.0,1.6,40,0.00,,,0.00,pywws,2013-05-29 17:43:00,
2013-05-29 13:48:00,89.6,60.6,30.19,South,180,2.2,3.8,38,0.00,,,0.00,pywws,2013-05-29 17:48:00,
2013-05-29 13:53:00,88.7,61.9,30.18,SW,225,0.0,1.6,41,0.00,,,0.00,pywws,2013-05-29 17:53:00,
2013-05-29 14:04:00,88.2,62.8,30.18,NW,315,0.7,2.2,43,0.00,,,0.00,pywws,2013-05-29 18:04:00,
2013-05-29 14:08:00,88.5,61.1,30.18,SE,135,1.6,3.1,40,0.00,,,0.00,pywws,2013-05-29 18:08:00,
2013-05-29 14:13:00,88.2,61.5,30.17,WSW,248,1.6,3.1,41,0.00,,,0.00,pywws,2013-05-29 18:13:00,
2013-05-29 14:18:00,88.7,62.6,30.17,SSW,202,1.6,3.1,42,0.00,,,0.00,pywws,2013-05-29 18:18:00,
2013-05-29 14:23:00,88.9,61.4,30.17,West,270,1.6,3.8,40,0.00,,,0.00,pywws,2013-05-29 18:23:00,
2013-05-29 14:34:00,88.7,61.2,30.16,South,180,1.6,3.1,40,0.00,,,0.00,pywws,2013-05-29 18:34:00,
2013-05-29 14:39:00,86.5,62.6,30.16,SE,135,0.7,3.1,45,0.00,,,0.00,pywws,2013-05-29 18:39:00,
2013-05-29 14:44:00,88.0,61.3,30.16,West,270,2.2,4.5,41,0.00,,,0.00,pywws,2013-05-29 18:44:00,
2013-05-29 14:49:00,88.3,60.9,30.16,SE,135,2.2,4.5,40,0.00,,,0.00,pywws,2013-05-29 18:49:00,
2013-05-29 14:54:00,87.8,62.5,30.15,South,180,0.7,2.2,43,0.00,,,0.00,pywws,2013-05-29 18:54:00,
2013-05-29 15:04:00,87.4,60.8,30.15,SE,135,1.6,3.1,41,0.00,,,0.00,pywws,2013-05-29 19:04:00,
2013-05-29 15:08:00,89.1,61.6,30.14,South,180,1.6,3.8,40,0.00,,,0.00,pywws,2013-05-29 19:08:00,
2013-05-29 15:13:00,88.5,60.4,30.14,SE,135,1.6,2.2,39,0.00,,,0.00,pywws,2013-05-29 19:13:00,
2013-05-29 15:18:00,88.2,60.8,30.14,SE,135,2.2,5.4,40,0.00,,,0.00,pywws,2013-05-29 19:18:00,
2013-05-29 15:23:00,88.5,61.1,30.14,SW,225,1.6,3.8,40,0.00,,,0.00,pywws,2013-05-29 19:23:00,
2013-05-29 15:34:00,89.2,61.0,30.15,SW,225,0.7,2.2,39,0.00,,,0.00,pywws,2013-05-29 19:34:00,
2013-05-29 15:39:00,87.6,61.7,30.15,NE,45,0.7,2.2,42,0.00,,,0.00,pywws,2013-05-29 19:39:00,
2013-05-29 15:44:00,86.9,62.3,30.15,West,270,0.0,1.6,44,0.00,,,0.00,pywws,2013-05-29 19:44:00,
2013-05-29 15:49:00,88.2,61.5,30.14,SE,135,0.7,1.6,41,0.00,,,0.00,pywws,2013-05-29 19:49:00,
2013-05-29 15:54:00,89.6,60.6,30.14,SE,135,0.7,2.2,38,0.00,,,0.00,pywws,2013-05-29 19:54:00,
2013-05-29 16:04:00,90.3,59.7,30.14,SSE,158,2.2,4.5,36,0.00,,,0.00,pywws,2013-05-29 20:04:00,
2013-05-29 16:08:00,90.1,60.3,30.15,SW,225,0.7,3.1,37,0.00,,,0.00,pywws,2013-05-29 20:08:00,
2013-05-29 16:13:00,89.6,61.3,30.15,ESE,112,0.7,2.2,39,0.00,,,0.00,pywws,2013-05-29 20:13:00,
2013-05-29 16:18:00,89.1,60.8,30.15,West,270,0.7,1.6,39,0.00,,,0.00,pywws,2013-05-29 20:18:00,
2013-05-29 16:23:00,88.0,61.3,30.15,SE,135,0.7,2.2,41,0.00,,,0.00,pywws,2013-05-29 20:23:00,
2013-05-29 16:34:00,86.9,61.0,30.15,South,180,0.7,1.6,42,0.00,,,0.00,pywws,2013-05-29 20:34:00,
2013-05-29 16:39:00,87.8,61.1,30.14,SE,135,1.6,3.1,41,0.00,,,0.00,pywws,2013-05-29 20:39:00,
2013-05-29 16:44:00,87.6,61.7,30.14,SE,135,1.6,3.1,42,0.00,,,0.00,pywws,2013-05-29 20:44:00,
2013-05-29 16:49:00,86.9,61.0,30.15,SSE,158,1.6,3.1,42,0.00,,,0.00,pywws,2013-05-29 20:49:00,
2013-05-29 16:54:00,86.7,61.5,30.15,South,180,0.0,1.6,43,0.00,,,0.00,pywws,2013-05-29 20:54:00,
2013-05-29 17:04:00,87.1,61.2,30.15,SE,135,0.7,2.2,42,0.00,,,0.00,pywws,2013-05-29 21:04:00,
2013-05-29 17:08:00,86.9,61.0,30.15,South,180,0.7,2.2,42,0.00,,,0.00,pywws,2013-05-29 21:08:00,
2013-05-29 17:13:00,87.3,62.0,30.14,South,180,0.0,1.6,43,0.00,,,0.00,pywws,2013-05-29 21:13:00,
2013-05-29 17:18:00,86.9,61.7,30.14,SE,135,0.7,3.1,43,0.00,,,0.00,pywws,2013-05-29 21:18:00,
2013-05-29 17:23:00,86.9,61.0,30.15,South,180,0.7,3.1,42,0.00,,,0.00,pywws,2013-05-29 21:23:00,
2013-05-29 17:34:00,87.1,61.2,30.15,SE,135,0.7,3.1,42,0.00,,,0.00,pywws,2013-05-29 21:34:00,
2013-05-29 17:39:00,86.9,60.3,30.15,SE,135,0.7,2.2,41,0.00,,,0.00,pywws,2013-05-29 21:39:00,
2013-05-29 17:44:00,86.9,60.3,30.15,East,90,0.0,0.7,41,0.00,,,0.00,pywws,2013-05-29 21:44:00,
2013-05-29 17:49:00,86.9,61.0,30.15,SE,135,0.7,2.2,42,0.00,,,0.00,pywws,2013-05-29 21:49:00,
2013-05-29 17:54:00,87.1,61.2,30.15,SE,135,0.7,2.2,42,0.00,,,0.00,pywws,2013-05-29 21:54:00,
2013-05-29 18:04:00,86.5,61.3,30.15,SW,225,0.7,1.6,43,0.00,,,0.00,pywws,2013-05-29 22:04:00,
2013-05-29 18:08:00,86.0,61.5,30.16,SSE,158,2.2,3.8,44,0.00,,,0.00,pywws,2013-05-29 22:08:00,
2013-05-29 18:13:00,84.9,61.8,30.15,WSW,248,1.6,2.2,46,0.00,,,0.00,pywws,2013-05-29 22:13:00,
2013-05-29 18:18:00,84.9,61.8,30.15,SE,135,2.2,3.1,46,0.00,,,0.00,pywws,2013-05-29 22:18:00,
2013-05-29 18:23:00,85.3,62.1,30.15,NE,45,0.0,2.2,46,0.00,,,0.00,pywws,2013-05-29 22:23:00,
2013-05-29 18:34:00,85.5,62.3,30.15,South,180,0.7,2.2,46,0.00,,,0.00,pywws,2013-05-29 22:34:00,
2013-05-29 18:39:00,85.1,62.6,30.16,East,90,0.0,1.6,47,0.00,,,0.00,pywws,2013-05-29 22:39:00,
2013-05-29 18:44:00,84.7,61.6,30.16,SSW,202,2.2,3.8,46,0.00,,,0.00,pywws,2013-05-29 22:44:00,
2013-05-29 18:49:00,84.0,61.6,30.16,East,90,2.2,5.4,47,0.00,,,0.00,pywws,2013-05-29 22:49:00,
2013-05-29 18:54:00,83.5,61.7,30.16,SE,135,1.6,3.1,48,0.00,,,0.00,pywws,2013-05-29 22:54:00,
2013-05-29 19:04:00,83.1,62.0,30.15,South,180,0.0,0.7,49,0.00,,,0.00,pywws,2013-05-29 23:04:00,
2013-05-29 19:09:00,82.6,61.5,30.16,SE,135,3.1,6.0,49,0.00,,,0.00,pywws,2013-05-29 23:09:00,
2013-05-29 19:14:00,82.6,62.0,30.16,East,90,0.7,1.6,50,0.00,,,0.00,pywws,2013-05-29 23:14:00,
2013-05-29 19:19:00,82.4,61.9,30.16,East,90,0.7,1.6,50,0.00,,,0.00,pywws,2013-05-29 23:19:00,
2013-05-29 19:24:00,82.8,61.6,30.16,South,180,1.6,2.2,49,0.00,,,0.00,pywws,2013-05-29 23:24:00,
2013-05-29 19:34:00,82.6,62.0,30.16,North,0,0.7,2.2,50,0.00,,,0.00,pywws,2013-05-29 23:34:00,
2013-05-29 19:39:00,82.4,62.4,30.15,SE,135,0.7,2.2,51,0.00,,,0.00,pywws,2013-05-29 23:39:00,
2013-05-29 19:44:00,82.2,62.3,30.16,SE,135,0.0,1.6,51,0.00,,,0.00,pywws,2013-05-29 23:44:00,
2013-05-29 19:49:00,82.0,62.1,30.16,SE,135,1.6,3.8,51,0.00,,,0.00,pywws,2013-05-29 23:49:00,
2013-05-29 19:54:00,81.9,61.9,30.16,South,180,1.6,3.8,51,0.00,,,0.00,pywws,2013-05-29 23:54:00,
2013-05-29 20:04:00,81.7,61.8,30.16,SE,135,1.6,2.2,51,0.00,,,0.00,pywws,2013-05-30 00:04:00,
2013-05-29 20:09:00,81.3,61.4,30.16,SE,135,0.7,3.1,51,0.00,,,0.00,pywws,2013-05-30 00:09:00,
2013-05-29 20:14:00,81.1,61.8,30.16,South,180,1.6,2.2,52,0.00,,,0.00,pywws,2013-05-30 00:14:00,
2013-05-29 20:19:00,81.0,61.7,30.16,South,180,0.7,2.2,52,0.00,,,0.00,pywws,2013-05-30 00:19:00,
2013-05-29 20:24:00,80.6,61.3,30.16,South,180,0.0,1.6,52,0.00,,,0.00,pywws,2013-05-30 00:24:00,
2013-05-29 20:34:00,80.4,61.7,30.16,SE,135,0.7,1.6,53,0.00,,,0.00,pywws,2013-05-30 00:34:00,
2013-05-29 20:39:00,79.5,61.9,30.16,East,90,0.0,0.7,55,0.00,,,0.00,pywws,2013-05-30 00:39:00,
2013-05-29 20:44:00,79.2,61.6,30.16,SE,135,0.0,0.7,55,0.00,,,0.00,pywws,2013-05-30 00:44:00,
2013-05-29 20:49:00,78.8,61.8,30.17,SE,135,0.0,0.7,56,0.00,,,0.00,pywws,2013-05-30 00:49:00,
2013-05-29 20:54:00,78.4,61.9,30.18,SE,135,0.0,1.6,57,0.00,,,0.00,pywws,2013-05-30 00:54:00,
2013-05-29 21:04:00,78.1,62.1,30.18,SE,135,0.0,0.7,58,0.00,,,0.00,pywws,2013-05-30 01:04:00,
2013-05-29 21:08:00,77.9,62.4,30.20,South,180,0.7,1.6,59,0.00,,,0.00,pywws,2013-05-30 01:08:00,
2013-05-29 21:13:00,77.7,62.2,30.20,SSE,158,0.7,1.6,59,0.00,,,0.00,pywws,2013-05-30 01:13:00,
2013-05-29 21:18:00,77.5,62.5,30.21,SE,135,0.7,1.6,60,0.00,,,0.00,pywws,2013-05-30 01:18:00,
2013-05-29 21:23:00,77.4,62.4,30.21,South,180,0.7,1.6,60,0.00,,,0.00,pywws,2013-05-30 01:23:00,
2013-05-29 21:34:00,77.2,62.2,30.22,SE,135,0.7,2.2,60,0.00,,,0.00,pywws,2013-05-30 01:34:00,
2013-05-29 21:38:00,76.6,62.2,30.23,SE,135,0.7,2.2,61,0.00,,,0.00,pywws,2013-05-30 01:38:00,
2013-05-29 21:43:00,76.5,62.0,30.24,South,180,0.7,2.2,61,0.00,,,0.00,pywws,2013-05-30 01:43:00,
2013-05-29 21:48:00,76.3,62.3,30.24,SE,135,2.2,3.8,62,0.00,,,0.00,pywws,2013-05-30 01:48:00,
2013-05-29 21:53:00,75.9,61.9,30.25,SE,135,1.6,2.2,62,0.00,,,0.00,pywws,2013-05-30 01:53:00,
2013-05-29 22:04:00,75.7,61.8,30.26,SE,135,1.6,3.1,62,0.00,,,0.00,pywws,2013-05-30 02:04:00,
2013-05-29 22:08:00,75.4,61.4,30.26,SE,135,0.7,2.2,62,0.00,,,0.00,pywws,2013-05-30 02:08:00,
2013-05-29 22:13:00,75.2,61.3,30.27,SSW,202,0.7,2.2,62,0.00,,,0.00,pywws,2013-05-30 02:13:00,
2013-05-29 22:18:00,75.0,61.1,30.28,South,180,0.0,1.6,62,0.00,,,0.00,pywws,2013-05-30 02:18:00,
2013-05-29 22:23:00,74.8,60.9,30.28,South,180,1.6,2.2,62,0.00,,,0.00,pywws,2013-05-30 02:23:00,
2013-05-29 22:34:00,74.7,60.8,30.28,South,180,1.6,3.1,62,0.00,,,0.00,pywws,2013-05-30 02:34:00,
2013-05-29 22:39:00,74.5,60.6,30.30,SE,135,1.6,3.1,62,0.00,,,0.00,pywws,2013-05-30 02:39:00,
2013-05-29 22:44:00,74.3,60.9,30.30,SE,135,1.6,2.2,63,0.00,,,0.00,pywws,2013-05-30 02:44:00,
2013-05-29 22:49:00,74.1,60.7,30.31,South,180,0.7,2.2,63,0.00,,,0.00,pywws,2013-05-30 02:49:00,
2013-05-29 22:54:00,73.8,60.8,30.32,South,180,0.7,3.1,64,0.00,,,0.00,pywws,2013-05-30 02:54:00,
2013-05-29 23:04:00,73.8,60.8,30.32,SE,135,2.2,4.5,64,0.00,,,0.00,pywws,2013-05-30 03:04:00,
2013-05-29 23:08:00,73.4,60.9,30.33,SE,135,0.7,2.2,65,0.00,,,0.00,pywws,2013-05-30 03:08:00,
2013-05-29 23:13:00,73.0,61.0,30.34,South,180,1.6,3.1,66,0.00,,,0.00,pywws,2013-05-30 03:13:00,
2013-05-29 23:18:00,72.9,61.7,30.34,SE,135,1.6,2.2,68,0.00,,,0.00,pywws,2013-05-30 03:18:00,
2013-05-29 23:23:00,72.7,61.5,30.34,South,180,0.7,2.2,68,0.00,,,0.00,pywws,2013-05-30 03:23:00,
2013-05-29 23:34:00,72.3,61.6,30.35,SE,135,0.7,2.2,69,0.00,,,0.00,pywws,2013-05-30 03:34:00,
2013-05-29 23:39:00,72.0,61.6,30.36,South,180,1.6,3.1,70,0.00,,,0.00,pywws,2013-05-30 03:39:00,
2013-05-29 23:44:00,71.8,61.9,30.37,SE,135,0.7,3.1,71,0.00,,,0.00,pywws,2013-05-30 03:44:00,
2013-05-29 23:49:00,71.6,62.1,30.37,South,180,1.6,2.2,72,0.00,,,0.00,pywws,2013-05-30 03:49:00,
2013-05-29 23:54:00,71.4,61.9,30.38,SE,135,0.7,2.2,72,0.00,,,0.00,pywws,2013-05-30 03:54:00,